Latest Weather Observations for Gayndah

IDQ60801

Issued at 6:02 pm EST Thursday 23 March 2017 (issued every 30 minutes, with the page automatically refreshed every 10 minutes)

About weather observations | Map of weather stations | Latest weather observations for QLD | Other Formats
Station Details ID: 039066 Name: GAYNDAH AIRPORT Lat: -25.62 Lon: 151.62 Height: 110.9 m
Data from the previous 72 hours. | See also: Recent months at Gayndah
Date/Time
EST
Temp
°C
App
Temp
°C
Dew
Point
°C
Rel
Hum
%
Delta-T
°C
Wind Press
QNH
hPa
Press
MSL
hPa
Rain since
9am
mm
Dir  Spd
km/h
Gust
km/h
Spd
kts
Gust
kts
23/06:00pm 25.4 28.0 20.0 72 3.5 N 6 7 3 4 1014.4 1013.8 0.4
23/05:30pm 25.8 27.9 19.4 67 4.1 NNE 7 11 4 6 1014.1 1013.6 0.4
23/05:00pm 26.2 27.8 20.8 72 3.6 ENE 13 19 7 10 1013.7 1013.2 0.4
23/04:30pm 26.5 28.5 20.8 71 3.8 NE 11 15 6 8 1013.6 1013.1 0.4
23/04:00pm 26.6 28.3 20.9 71 3.8 NNE 13 17 7 9 1013.5 1013.0 0.4
23/03:30pm 26.9 28.5 21.4 72 3.7 NE 15 22 8 12 1013.5 1013.0 0.4
23/03:00pm 26.6 28.2 21.4 73 3.5 NE 15 20 8 11 1013.7 1013.2 0.4
23/02:30pm 26.4 28.2 21.2 73 3.5 NE 13 19 7 10 1014.3 1013.7 0.4
23/02:00pm 26.4 26.7 20.7 71 3.8 NE 20 26 11 14 1014.4 1013.8 0.4
23/01:30pm 26.7 28.1 21.0 71 3.8 ENE 15 20 8 11 1014.5 1013.9 0.4
23/01:00pm 26.7 28.9 21.9 75 3.2 NE 13 20 7 11 1014.8 1014.2 0.4
23/12:30pm 26.2 27.5 21.6 76 3.1 NE 17 24 9 13 1015.1 1014.5 0.4
23/12:00pm 25.7 27.3 21.4 77 2.9 NE 15 24 8 13 1015.5 1014.9 0.4
23/11:30am 24.8 26.7 22.1 85 1.8 NE 15 20 8 11 1016.1 1015.5 0.4
23/11:00am 23.6 25.0 21.9 90 1.1 NE 17 22 9 12 1016.6 1016.0 0.4
23/10:30am 23.4 24.7 22.4 94 0.7 NE 19 24 10 13 1016.8 1016.2 0.4
23/10:00am 24.5 27.1 22.0 86 1.7 ENE 11 19 6 10 1016.7 1016.1 0.2
23/09:30am 24.1 28.2 22.9 93 0.8 NNE 6 7 3 4 1016.7 1016.1 0.2
23/09:00am 23.6 27.4 22.4 93 0.8 NNE 6 9 3 5 1016.5 1015.9 7.2
23/08:30am 24.3 27.2 21.8 86 1.7 ENE 9 15 5 8 1016.2 1015.6 6.8
23/08:00am 23.7 27.3 22.1 91 1.1 E 6 7 3 4 1016.1 1015.5 6.8
23/07:30am 23.2 26.5 21.8 92 0.9 E 7 11 4 6 1015.5 1014.9 6.8
23/07:00am 23.0 27.1 22.3 96 0.5 NE 4 6 2 3 1015.0 1014.4 6.8
23/06:30am 22.8 27.6 22.1 96 0.5 CALM 0 0 0 0 1014.7 1014.1 6.8
23/06:00am 22.6 27.3 21.9 96 0.5 CALM 0 0 0 0 1014.5 1013.9 6.8
23/05:30am 22.6 27.4 22.1 97 0.3 CALM 0 0 0 0 1014.4 1013.8 6.8
23/05:00am 22.4 27.0 21.7 96 0.5 CALM 0 0 0 0 1014.0 1013.5 6.8
23/04:30am 22.4 27.1 21.9 97 0.3 CALM 0 0 0 0 1013.9 1013.4 6.8
23/04:00am 22.4 27.2 22.1 98 0.2 CALM 0 0 0 0 1013.8 1013.3 6.8
23/03:30am 22.4 27.2 22.1 98 0.2 CALM 0 0 0 0 1013.6 1013.1 6.8
23/03:00am 22.3 27.0 22.0 98 0.2 CALM 0 0 0 0 1013.4 1012.9 6.8
23/02:30am 22.2 26.8 21.7 97 0.3 CALM 0 0 0 0 1013.6 1013.1 6.8
23/02:00am 22.4 27.2 22.1 98 0.2 CALM 0 0 0 0 1013.9 1013.4 6.8
23/01:30am 22.3 27.0 22.0 98 0.2 CALM 0 0 0 0 1014.1 1013.6 6.8
23/01:00am 22.3 27.0 22.0 98 0.2 CALM 0 0 0 0 1014.5 1013.9 6.8
23/12:30am 22.2 26.9 21.9 98 0.2 CALM 0 0 0 0 1015.0 1014.4 6.8
23/12:00am 22.3 27.0 22.0 98 0.2 CALM 0 0 0 0 1015.2 1014.6 6.6
 
Date/Time
EST
Temp
°C
App
Temp
°C
Dew
Point
°C
Rel
Hum
%
Delta-T
°C
Wind Press
QNH
hPa
Press
MSL
hPa
Rain since
9am
mm
Dir  Spd
km/h
Gust
km/h
Spd
kts
Gust
kts
22/11:30pm 22.3 26.6 22.0 98 0.2 WSW 2 2 1 1 1015.5 1014.9 6.0
22/11:00pm 22.2 26.8 21.7 97 0.3 CALM 0 0 0 0 1015.6 1015.0 5.8
22/10:30pm 22.1 26.5 21.4 96 0.5 CALM 0 0 0 0 1015.5 1014.9 5.6
22/10:00pm 22.1 26.5 21.4 96 0.5 CALM 0 0 0 0 1015.4 1014.8 5.4
22/09:30pm 22.1 25.7 21.3 95 0.5 E 4 6 2 3 1015.5 1014.9 5.2
22/09:00pm 22.1 26.4 21.1 94 0.7 CALM 0 4 0 2 1015.7 1015.1 4.8
22/08:30pm 22.2 24.7 21.0 93 0.8 E 9 11 5 6 1015.4 1014.8 4.8
22/08:00pm 22.6 27.1 21.6 94 0.7 CALM 0 2 0 1 1015.2 1014.6 4.6
22/07:30pm 22.6 26.9 21.1 91 1.0 CALM 0 0 0 0 1014.9 1014.3 4.6
22/07:00pm 22.5 26.8 21.1 92 0.9 CALM 0 0 0 0 1014.7 1014.1 4.6
22/06:30pm 22.6 26.8 20.9 90 1.1 CALM 0 2 0 1 1014.5 1013.9 4.6
22/06:00pm 22.6 26.9 21.1 91 1.0 CALM 0 0 0 0 1014.1 1013.6 4.4
22/05:30pm 22.5 25.8 20.8 90 1.1 ESE 4 6 2 3 1013.7 1013.2 4.4
22/05:00pm 22.7 25.9 21.2 91 1.0 ESE 6 7 3 4 1013.2 1012.7 4.4
22/04:30pm 22.8 25.5 21.4 92 0.9 NE 9 15 5 8 1013.0 1012.5 4.2
22/04:00pm 22.8 24.3 21.3 91 1.0 NE 15 24 8 13 1013.1 1012.6 4.0
22/03:30pm 23.5 26.0 21.8 90 1.1 NNE 11 19 6 10 1012.9 1012.4 3.4
22/03:00pm 23.8 24.6 21.3 86 1.7 NNE 19 28 10 15 1012.8 1012.3 3.2
22/02:30pm 25.3 29.7 23.5 90 1.2 NE 6 9 3 5 1013.0 1012.5 3.2
22/02:00pm 24.9 28.8 23.0 89 1.3 NE 7 9 4 5 1013.3 1012.8 3.0
22/01:30pm 24.4 28.3 21.9 86 1.7 NNE 4 7 2 4 1013.6 1013.1 3.0
22/01:00pm 24.4 27.2 21.5 84 1.9 ENE 9 11 5 6 1013.9 1013.4 2.8
22/12:30pm 23.9 27.1 21.2 85 1.8 NNE 6 9 3 5 1014.3 1013.7 2.8
22/12:00pm 23.3 26.5 21.6 90 1.1 NE 7 13 4 7 1014.9 1014.3 2.8
22/11:30am 22.6 22.7 19.9 85 1.7 NNE 19 28 10 15 1015.4 1014.8 0.6
22/11:17am 24.1 23.7 19.4 75 3.0 ENE 20 44 11 24 1015.2 1014.6 0.0
22/11:00am 25.6 27.8 21.9 80 2.5 E 13 19 7 10 1014.9 1014.3 0.0
22/10:30am 25.5 28.1 22.0 81 2.3 ESE 11 17 6 9 1015.2 1014.6 0.0
22/10:00am 25.3 27.9 22.0 82 2.2 E 11 13 6 7 1015.4 1014.8 0.0
22/09:30am 25.0 27.7 22.1 84 1.9 ESE 11 13 6 7 1015.5 1014.9 0.0
22/09:00am 24.7 27.2 21.8 84 1.9 E 11 15 6 8 1015.5 1014.9 1.4
22/08:30am 24.5 27.2 22.2 87 1.5 E 11 13 6 7 1015.5 1014.9 1.4
22/08:00am 24.0 27.6 22.3 90 1.1 E 7 9 4 5 1015.3 1014.7 1.4
22/07:30am 23.8 27.5 22.2 91 1.1 ENE 6 6 3 3 1015.1 1014.5 1.4
22/07:00am 23.4 27.0 22.0 92 0.9 ESE 6 7 3 4 1014.8 1014.2 1.4
22/06:30am 23.4 26.8 22.0 92 0.9 NNE 7 13 4 7 1014.8 1014.2 1.4
22/06:00am 23.6 27.5 21.9 90 1.1 NE 4 4 2 2 1014.3 1013.7 1.2
22/05:30am 23.9 27.7 21.6 87 1.5 E 4 7 2 4 1014.0 1013.5 1.2
22/05:00am 23.6 27.0 21.7 89 1.3 E 6 6 3 3 1013.6 1013.1 1.2
22/04:30am 23.6 27.4 21.7 89 1.3 E 4 6 2 3 1013.4 1012.9 1.2
22/04:00am 23.5 27.4 21.8 90 1.1 E 4 6 2 3 1013.3 1012.8 1.2
22/03:30am 23.7 27.7 22.0 90 1.1 E 4 6 2 3 1013.3 1012.8 1.2
22/03:00am 23.5 27.7 21.8 90 1.1 SE 2 4 1 2 1013.4 1012.9 1.2
22/02:30am 23.5 27.0 21.8 90 1.1 E 6 6 3 3 1013.5 1013.0 1.2
22/02:00am 23.5 27.4 21.8 90 1.1 ESE 4 6 2 3 1013.7 1013.2 1.2
22/01:30am 23.6 27.5 21.9 90 1.1 SE 4 6 2 3 1013.9 1013.4 1.2
22/01:00am 23.6 28.3 22.0 91 1.1 CALM 0 0 0 0 1014.1 1013.6 1.0
22/12:30am 23.7 28.2 21.6 88 1.4 CALM 0 2 0 1 1014.4 1013.8 1.0
22/12:00am 23.8 27.2 21.7 88 1.4 NE 6 7 3 4 1014.6 1014.0 1.0
 
Date/Time
EST
Temp
°C
App
Temp
°C
Dew
Point
°C
Rel
Hum
%
Delta-T
°C
Wind Press
QNH
hPa
Press
MSL
hPa
Rain since
9am
mm
Dir  Spd
km/h
Gust
km/h
Spd
kts
Gust
kts
21/11:30pm 24.1 28.6 21.6 86 1.7 CALM 0 2 0 1 1014.7 1014.1 1.0
21/11:00pm 24.0 27.9 21.9 88 1.4 E 4 6 2 3 1015.0 1014.4 1.0
21/10:30pm 24.1 27.9 21.6 86 1.7 SSE 4 6 2 3 1015.2 1014.6 1.0
21/10:00pm 24.2 28.4 21.7 86 1.7 E 2 2 1 1 1015.3 1014.7 1.0
21/09:30pm 24.3 27.9 22.0 87 1.5 ENE 6 7 3 4 1015.2 1014.6 1.0
21/09:00pm 24.5 27.8 21.8 85 1.8 ENE 7 9 4 5 1015.3 1014.7 1.0
21/08:30pm 24.5 28.1 22.0 86 1.7 E 6 7 3 4 1015.0 1014.4 1.0
21/08:00pm 24.9 28.7 22.4 86 1.7 ENE 6 7 3 4 1014.8 1014.2 1.0
21/07:30pm 24.8 29.9 22.7 88 1.4 CALM 0 2 0 1 1014.5 1013.9 1.0
21/07:00pm 24.6 29.8 22.8 90 1.2 CALM 0 0 0 0 1013.9 1013.4 0.8
21/06:30pm 24.4 29.5 22.7 90 1.1 CALM 0 0 0 0 1013.6 1013.1 0.8
21/06:00pm 24.8 29.6 22.1 85 1.8 CALM 0 2 0 1 1013.4 1012.9 0.8
21/05:30pm 24.6 27.9 21.9 85 1.8 SSE 7 9 4 5 1013.1 1012.6 0.8
21/05:00pm 26.2 29.6 21.6 76 3.1 NE 6 9 3 5 1013.0 1012.5 0.4
21/04:30pm 26.4 29.2 21.6 75 3.2 ENE 9 11 5 6 1013.1 1012.6 0.4
21/04:00pm 26.3 29.4 21.1 73 3.5 NNE 6 9 3 5 1013.1 1012.6 0.4
21/03:30pm 26.1 29.7 21.3 75 3.2 NE 4 6 2 3 1013.3 1012.8 0.4
21/03:00pm 25.5 28.9 21.0 76 3.0 NNE 4 6 2 3 1013.7 1013.2 0.4
21/02:30pm 25.1 28.4 20.8 77 2.8 NNE 4 6 2 3 1014.1 1013.6 0.4
21/02:00pm 24.7 27.2 20.2 76 2.9 ENE 7 9 4 5 1014.6 1014.0 0.2
21/01:30pm 25.0 25.3 20.3 75 3.1 ENE 19 22 10 12 1014.8 1014.2 0.2
21/01:00pm 25.0 25.7 20.5 76 2.9 NE 17 20 9 11 1015.0 1014.4 0.2
21/12:30pm 26.8 28.2 21.1 71 3.8 ENE 15 24 8 13 1015.0 1014.4 0.0
21/12:00pm 26.9 27.9 21.0 70 3.9 ENE 17 22 9 12 1015.2 1014.6 0.0
21/11:30am 26.9 27.6 21.2 71 3.8 ENE 19 26 10 14 1015.4 1014.8 0.0
21/11:00am 26.6 27.9 21.6 74 3.3 ENE 17 24 9 13 1015.6 1015.0 0.0
21/10:30am 26.4 26.5 21.2 73 3.5 NE 22 30 12 16 1015.8 1015.2 0.0
21/10:00am 26.6 26.8 21.4 73 3.5 ENE 22 30 12 16 1015.8 1015.2 0.0
21/09:30am 26.2 27.1 21.6 76 3.1 ENE 19 26 10 14 1015.9 1015.3 0.0
21/09:00am 25.8 27.1 21.7 78 2.7 ENE 17 24 9 13 1015.8 1015.2 24.4
21/08:30am 25.0 28.0 21.9 83 2.1 E 9 13 5 7 1015.6 1015.0 24.4
21/08:00am 24.5 27.1 22.0 86 1.7 E 11 15 6 8 1015.3 1014.7 24.4
21/07:30am 24.0 27.5 21.9 88 1.4 ENE 6 11 3 6 1015.1 1014.5 24.4
21/07:00am 23.1 28.0 22.3 95 0.5 CALM 0 0 0 0 1014.9 1014.3 24.4
21/06:30am 22.8 27.6 22.1 96 0.5 CALM 0 0 0 0 1014.8 1014.2 24.4
21/06:00am 22.6 27.4 22.1 97 0.3 CALM 0 0 0 0 1014.6 1014.0 24.4
21/05:30am 22.5 27.1 21.8 96 0.5 CALM 0 0 0 0 1014.4 1013.8 24.4
21/05:00am 22.5 27.1 21.8 96 0.5 CALM 0 0 0 0 1014.1 1013.6 24.4
21/04:30am 22.5 27.1 21.8 96 0.5 CALM 0 0 0 0 1014.0 1013.5 24.4
21/04:00am 22.5 25.0 21.7 95 0.5 E 11 15 6 8 1014.1 1013.6 23.8
21/03:30am 22.9 23.6 21.5 92 0.9 ENE 20 28 11 15 1014.1 1013.6 22.8
21/03:00am 23.2 27.9 22.7 97 0.3 SE 2 6 1 3 1013.9 1013.4 21.2
21/02:30am 23.1 28.2 22.6 97 0.3 CALM 0 0 0 0 1013.9 1013.4 21.2
21/02:00am 23.1 28.0 22.4 96 0.5 CALM 0 0 0 0 1013.9 1013.4 21.2
21/01:30am 23.2 28.1 22.4 95 0.5 CALM 0 0 0 0 1014.3 1013.7 21.2
21/01:00am 23.3 28.2 22.3 94 0.7 CALM 0 2 0 1 1014.6 1014.0 21.2
21/12:30am 23.4 28.2 22.2 93 0.8 CALM 0 0 0 0 1014.8 1014.2 21.2
21/12:00am 23.4 28.2 22.2 93 0.8 CALM 0 2 0 1 1014.9 1014.3 21.2
 
Date/Time
EST
Temp
°C
App
Temp
°C
Dew
Point
°C
Rel
Hum
%
Delta-T
°C
Wind Press
QNH
hPa
Press
MSL
hPa
Rain since
9am
mm
Dir  Spd
km/h
Gust
km/h
Spd
kts
Gust
kts
20/11:30pm 23.6 28.1 22.2 92 0.9 ENE 2 4 1 2 1015.0 1014.4 21.2
20/11:00pm 23.6 27.4 22.4 93 0.8 E 6 7 3 4 1015.0 1014.4 21.2
20/10:30pm 23.6 27.1 22.2 92 0.9 E 7 15 4 8 1015.3 1014.7 21.0
20/10:00pm 23.6 28.8 22.8 95 0.5 CALM 0 0 0 0 1015.5 1014.9 20.2
20/09:30pm 23.7 28.2 22.9 95 0.5 N 4 4 2 2 1015.6 1015.0 20.2
20/09:00pm 23.9 29.1 22.9 94 0.7 CALM 0 0 0 0 1015.6 1015.0 20.2
20/08:30pm 23.9 29.0 22.7 93 0.8 CALM 0 2 0 1 1015.3 1014.7 20.2
20/08:00pm 23.9 28.6 22.7 93 0.8 NNE 2 6 1 3 1015.0 1014.4 20.2
20/07:30pm 23.8 28.7 22.4 92 0.9 CALM 0 2 0 1 1014.6 1014.0 20.2
20/07:00pm 23.9 28.6 22.7 93 0.8 NE 2 2 1 1 1014.3 1013.7 20.2
20/06:30pm 23.9 28.2 22.7 93 0.8 NE 4 4 2 2 1013.9 1013.4 20.2

Other Formats:

Comma delimited format used in spreadsheet applications
http://www.bom.gov.au/fwo/IDQ60801/IDQ60801.95543.axf

JavaScript Object Notation format (JSON) in row-major order
http://www.bom.gov.au/fwo/IDQ60801/IDQ60801.95543.json